sensor_id;sensor_type;location;lat;lon;timestamp;pressure;altitude;pressure_sealevel;temperature;humidity
9717;BME280;4897;43.570;27.832;2024-03-23T00:52:59;99236.16;;;2.58;100.00
9717;BME280;4897;43.570;27.832;2024-03-23T00:55:25;99231.72;;;2.59;100.00
9717;BME280;4897;43.570;27.832;2024-03-23T00:57:52;99224.09;;;2.53;100.00
9717;BME280;4897;43.570;27.832;2024-03-23T01:00:19;99221.78;;;2.47;100.00
9717;BME280;4897;43.570;27.832;2024-03-23T01:02:46;99217.34;;;2.47;100.00
9717;BME280;4897;43.570;27.832;2024-03-23T01:05:12;99217.59;;;2.42;100.00
9717;BME280;4897;43.570;27.832;2024-03-23T01:07:39;99228.22;;;2.41;100.00
9717;BME280;4897;43.570;27.832;2024-03-23T01:10:05;99225.50;;;2.42;100.00
9717;BME280;4897;43.570;27.832;2024-03-23T01:12:32;99217.13;;;2.52;100.00
9717;BME280;4897;43.570;27.832;2024-03-23T01:14:58;99218.22;;;2.48;100.00
9717;BME280;4897;43.570;27.832;2024-03-23T01:17:26;99210.84;;;2.54;100.00
9717;BME280;4897;43.570;27.832;2024-03-23T01:19:52;99194.63;;;2.44;100.00
9717;BME280;4897;43.570;27.832;2024-03-23T01:22:19;99208.22;;;2.54;100.00
9717;BME280;4897;43.570;27.832;2024-03-23T01:24:45;99180.31;;;2.49;100.00
9717;BME280;4897;43.570;27.832;2024-03-23T01:27:12;99209.34;;;2.49;100.00
9717;BME280;4897;43.570;27.832;2024-03-23T01:29:38;99209.84;;;2.39;100.00
9717;BME280;4897;43.570;27.832;2024-03-23T01:32:05;99208.75;;;2.43;100.00
9717;BME280;4897;43.570;27.832;2024-03-23T01:34:36;99195.09;;;2.35;100.00
9717;BME280;4897;43.570;27.832;2024-03-23T01:37:03;99174.06;;;2.34;100.00
9717;BME280;4897;43.570;27.832;2024-03-23T01:39:30;99200.34;;;2.53;100.00
9717;BME280;4897;43.570;27.832;2024-03-23T01:41:56;99209.97;;;2.71;100.00
9717;BME280;4897;43.570;27.832;2024-03-23T01:44:22;99211.06;;;2.67;100.00
9717;BME280;4897;43.570;27.832;2024-03-23T01:46:49;99206.88;;;2.63;100.00
9717;BME280;4897;43.570;27.832;2024-03-23T01:49:15;99210.44;;;2.62;100.00
9717;BME280;4897;43.570;27.832;2024-03-23T01:51:44;99207.78;;;2.62;100.00
9717;BME280;4897;43.570;27.832;2024-03-23T01:54:10;99211.84;;;2.69;100.00
9717;BME280;4897;43.570;27.832;2024-03-23T01:56:37;99208.91;;;2.58;100.00
9717;BME280;4897;43.570;27.832;2024-03-23T01:59:04;99210.91;;;2.53;100.00
9717;BME280;4897;43.570;27.832;2024-03-23T02:01:34;99208.13;;;2.38;100.00
9717;BME280;4897;43.570;27.832;2024-03-23T02:04:01;99213.94;;;2.45;100.00
9717;BME280;4897;43.570;27.832;2024-03-23T02:06:28;99201.28;;;2.52;100.00
9717;BME280;4897;43.570;27.832;2024-03-23T02:08:55;99183.59;;;2.36;100.00
9717;BME280;4897;43.570;27.832;2024-03-23T02:11:22;99206.72;;;2.49;100.00
9717;BME280;4897;43.570;27.832;2024-03-23T02:13:48;99217.72;;;2.57;100.00
9717;BME280;4897;43.570;27.832;2024-03-23T02:16:15;99208.66;;;2.45;100.00
9717;BME280;4897;43.570;27.832;2024-03-23T02:18:41;99212.78;;;2.51;100.00
9717;BME280;4897;43.570;27.832;2024-03-23T02:21:08;99200.66;;;2.47;100.00
9717;BME280;4897;43.570;27.832;2024-03-23T02:23:35;99207.59;;;2.49;100.00
9717;BME280;4897;43.570;27.832;2024-03-23T02:26:03;99207.03;;;2.42;100.00
9717;BME280;4897;43.570;27.832;2024-03-23T02:28:28;99213.72;;;2.50;100.00
9717;BME280;4897;43.570;27.832;2024-03-23T02:30:55;99198.44;;;2.39;100.00
9717;BME280;4897;43.570;27.832;2024-03-23T02:33:21;99202.84;;;2.38;100.00
9717;BME280;4897;43.570;27.832;2024-03-23T02:35:49;99207.50;;;2.51;100.00
9717;BME280;4897;43.570;27.832;2024-03-23T02:38:15;99215.91;;;2.41;100.00
9717;BME280;4897;43.570;27.832;2024-03-23T02:40:43;99208.53;;;2.48;100.00
9717;BME280;4897;43.570;27.832;2024-03-23T02:43:10;99202.53;;;2.44;100.00
9717;BME280;4897;43.570;27.832;2024-03-23T02:45:38;99203.25;;;2.48;100.00
9717;BME280;4897;43.570;27.832;2024-03-23T02:48:05;99201.16;;;2.37;100.00
9717;BME280;4897;43.570;27.832;2024-03-23T02:50:31;99167.19;;;2.14;100.00
9717;BME280;4897;43.570;27.832;2024-03-23T02:52:59;99188.09;;;2.34;100.00
9717;BME280;4897;43.570;27.832;2024-03-23T02:55:24;99196.56;;;2.41;100.00
9717;BME280;4897;43.570;27.832;2024-03-23T02:57:53;99198.88;;;2.47;100.00
9717;BME280;4897;43.570;27.832;2024-03-23T03:00:19;99199.44;;;2.36;100.00
9717;BME280;4897;43.570;27.832;2024-03-23T03:02:46;99186.78;;;2.26;100.00
9717;BME280;4897;43.570;27.832;2024-03-23T03:05:11;99188.66;;;2.24;100.00
9717;BME280;4897;43.570;27.832;2024-03-23T03:07:39;99198.91;;;2.30;100.00
9717;BME280;4897;43.570;27.832;2024-03-23T03:10:06;99128.31;;;2.01;100.00
9717;BME280;4897;43.570;27.832;2024-03-23T03:12:36;99197.56;;;2.38;100.00
9717;BME280;4897;43.570;27.832;2024-03-23T03:15:05;99192.97;;;2.42;100.00
9717;BME280;4897;43.570;27.832;2024-03-23T03:17:32;99191.69;;;2.33;100.00
9717;BME280;4897;43.570;27.832;2024-03-23T03:19:58;98988.13;;;0.90;100.00
9717;BME280;4897;43.570;27.832;2024-03-23T03:22:26;99113.03;;;1.73;100.00
9717;BME280;4897;43.570;27.832;2024-03-23T03:24:52;99173.81;;;2.21;100.00
9717;BME280;4897;43.570;27.832;2024-03-23T03:27:19;99097.38;;;1.70;100.00
9717;BME280;4897;43.570;27.832;2024-03-23T03:29:45;99181.75;;;2.38;100.00
9717;BME280;4897;43.570;27.832;2024-03-23T03:32:13;99179.97;;;2.22;100.00
9717;BME280;4897;43.570;27.832;2024-03-23T03:34:39;99176.00;;;2.13;100.00
9717;BME280;4897;43.570;27.832;2024-03-23T03:37:06;99162.03;;;1.94;100.00
9717;BME280;4897;43.570;27.832;2024-03-23T03:39:32;99201.25;;;2.19;100.00
9717;BME280;4897;43.570;27.832;2024-03-23T03:41:59;99169.34;;;2.06;100.00
9717;BME280;4897;43.570;27.832;2024-03-23T03:44:26;99192.59;;;2.15;100.00
9717;BME280;4897;43.570;27.832;2024-03-23T03:46:52;99177.41;;;2.20;100.00
9717;BME280;4897;43.570;27.832;2024-03-23T03:49:20;99185.69;;;2.30;100.00
9717;BME280;4897;43.570;27.832;2024-03-23T03:51:47;99183.78;;;2.16;100.00
9717;BME280;4897;43.570;27.832;2024-03-23T03:54:13;99179.28;;;2.18;100.00
9717;BME280;4897;43.570;27.832;2024-03-23T03:56:39;99195.88;;;2.20;100.00
9717;BME280;4897;43.570;27.832;2024-03-23T03:59:05;99202.25;;;2.16;100.00
9717;BME280;4897;43.570;27.832;2024-03-23T04:01:32;99192.38;;;2.20;100.00
9717;BME280;4897;43.570;27.832;2024-03-23T04:03:58;99195.72;;;2.23;100.00
9717;BME280;4897;43.570;27.832;2024-03-23T04:06:26;99114.19;;;1.68;100.00
9717;BME280;4897;43.570;27.832;2024-03-23T04:08:52;99192.06;;;2.26;100.00
9717;BME280;4897;43.570;27.832;2024-03-23T04:11:19;99195.34;;;2.31;100.00
9717;BME280;4897;43.570;27.832;2024-03-23T04:13:45;99175.56;;;2.22;100.00
9717;BME280;4897;43.570;27.832;2024-03-23T04:16:13;99188.88;;;2.36;100.00
9717;BME280;4897;43.570;27.832;2024-03-23T04:18:38;99176.31;;;2.24;100.00
9717;BME280;4897;43.570;27.832;2024-03-23T04:21:09;99191.28;;;2.41;100.00
9717;BME280;4897;43.570;27.832;2024-03-23T04:23:36;99197.56;;;2.38;100.00
9717;BME280;4897;43.570;27.832;2024-03-23T04:26:04;99191.16;;;2.44;100.00
9717;BME280;4897;43.570;27.832;2024-03-23T04:28:30;99125.28;;;2.08;100.00
9717;BME280;4897;43.570;27.832;2024-03-23T04:30:57;99194.78;;;2.59;100.00
9717;BME280;4897;43.570;27.832;2024-03-23T04:33:23;99192.06;;;2.60;100.00
9717;BME280;4897;43.570;27.832;2024-03-23T04:35:50;99190.72;;;2.69;100.00
9717;BME280;4897;43.570;27.832;2024-03-23T04:38:16;99201.09;;;2.72;100.00
9717;BME280;4897;43.570;27.832;2024-03-23T04:40:44;99198.75;;;2.83;100.00
9717;BME280;4897;43.570;27.832;2024-03-23T04:43:11;99194.78;;;2.91;100.00
9717;BME280;4897;43.570;27.832;2024-03-23T04:45:39;99198.88;;;2.97;100.00
9717;BME280;4897;43.570;27.832;2024-03-23T04:48:06;99172.03;;;2.89;100.00
9717;BME280;4897;43.570;27.832;2024-03-23T04:50:33;99190.03;;;3.13;100.00
9717;BME280;4897;43.570;27.832;2024-03-23T04:53:00;99187.75;;;3.23;100.00
9717;BME280;4897;43.570;27.832;2024-03-23T04:55:27;99175.47;;;3.22;100.00
9717;BME280;4897;43.570;27.832;2024-03-23T04:57:55;99125.53;;;3.02;100.00
9717;BME280;4897;43.570;27.832;2024-03-23T05:00:21;99181.47;;;3.41;100.00
9717;BME280;4897;43.570;27.832;2024-03-23T05:02:48;99145.31;;;3.26;100.00
9717;BME280;4897;43.570;27.832;2024-03-23T05:05:16;99101.94;;;3.14;100.00
9717;BME280;4897;43.570;27.832;2024-03-23T05:07:41;99161.91;;;3.59;100.00
9717;BME280;4897;43.570;27.832;2024-03-23T05:10:09;99117.69;;;3.47;100.00
9717;BME280;4897;43.570;27.832;2024-03-23T05:12:36;99180.97;;;3.95;100.00
9717;BME280;4897;43.570;27.832;2024-03-23T05:15:05;99162.50;;;4.10;100.00
9717;BME280;4897;43.570;27.832;2024-03-23T05:17:34;99191.00;;;4.34;100.00
9717;BME280;4897;43.570;27.832;2024-03-23T05:20:03;99186.41;;;4.38;100.00
9717;BME280;4897;43.570;27.832;2024-03-23T05:22:29;99182.28;;;4.48;100.00
9717;BME280;4897;43.570;27.832;2024-03-23T05:24:57;99185.41;;;4.68;100.00
9717;BME280;4897;43.570;27.832;2024-03-23T05:27:22;99154.50;;;4.69;100.00
9717;BME280;4897;43.570;27.832;2024-03-23T05:29:50;99177.78;;;5.06;100.00
9717;BME280;4897;43.570;27.832;2024-03-23T05:32:17;99178.91;;;5.16;100.00
9717;BME280;4897;43.570;27.832;2024-03-23T05:34:44;99185.50;;;5.37;100.00
9717;BME280;4897;43.570;27.832;2024-03-23T05:37:10;99169.31;;;5.42;100.00
9717;BME280;4897;43.570;27.832;2024-03-23T05:39:37;99173.06;;;5.52;100.00
9717;BME280;4897;43.570;27.832;2024-03-23T05:42:03;99160.41;;;5.69;100.00
9717;BME280;4897;43.570;27.832;2024-03-23T05:44:30;99188.53;;;5.86;100.00
9717;BME280;4897;43.570;27.832;2024-03-23T05:46:56;99151.63;;;5.96;100.00
9717;BME280;4897;43.570;27.832;2024-03-23T05:49:25;99148.72;;;6.13;100.00
9717;BME280;4897;43.570;27.832;2024-03-23T05:51:51;99170.13;;;6.49;100.00
9717;BME280;4897;43.570;27.832;2024-03-23T05:54:20;99165.25;;;6.56;100.00
9717;BME280;4897;43.570;27.832;2024-03-23T05:56:45;99162.59;;;6.93;100.00
9717;BME280;4897;43.570;27.832;2024-03-23T05:59:12;99166.59;;;7.11;100.00
9717;BME280;4897;43.570;27.832;2024-03-23T06:01:38;99152.78;;;7.19;100.00
9717;BME280;4897;43.570;27.832;2024-03-23T06:04:05;99152.31;;;7.38;100.00
9717;BME280;4897;43.570;27.832;2024-03-23T06:06:37;99108.13;;;6.99;100.00
9717;BME280;4897;43.570;27.832;2024-03-23T06:09:04;99153.38;;;7.71;100.00
9717;BME280;4897;43.570;27.832;2024-03-23T06:11:31;99147.75;;;7.87;100.00
9717;BME280;4897;43.570;27.832;2024-03-23T06:13:57;99150.38;;;7.99;100.00
9717;BME280;4897;43.570;27.832;2024-03-23T06:16:24;99153.47;;;8.17;100.00
9717;BME280;4897;43.570;27.832;2024-03-23T06:18:50;99126.72;;;8.19;100.00
9717;BME280;4897;43.570;27.832;2024-03-23T06:21:17;99122.13;;;8.21;100.00
9717;BME280;4897;43.570;27.832;2024-03-23T06:23:47;99153.91;;;8.69;100.00
9717;BME280;4897;43.570;27.832;2024-03-23T06:26:16;99157.31;;;8.82;100.00
9717;BME280;4897;43.570;27.832;2024-03-23T06:28:42;99139.03;;;8.78;100.00
9717;BME280;4897;43.570;27.832;2024-03-23T06:31:10;99151.25;;;9.14;100.00
9717;BME280;4897;43.570;27.832;2024-03-23T06:33:36;99150.53;;;9.23;100.00
9717;BME280;4897;43.570;27.832;2024-03-23T06:36:03;99133.69;;;9.22;100.00
9717;BME280;4897;43.570;27.832;2024-03-23T06:38:29;99139.59;;;9.48;100.00
9717;BME280;4897;43.570;27.832;2024-03-23T06:40:57;99155.09;;;9.76;100.00
9717;BME280;4897;43.570;27.832;2024-03-23T06:43:23;99141.97;;;9.84;100.00
9717;BME280;4897;43.570;27.832;2024-03-23T06:45:52;99139.50;;;9.92;100.00
9717;BME280;4897;43.570;27.832;2024-03-23T06:48:20;99128.91;;;10.02;100.00
9717;BME280;4897;43.570;27.832;2024-03-23T06:50:55;99140.13;;;10.27;100.00
9717;BME280;4897;43.570;27.832;2024-03-23T06:53:21;99150.63;;;10.19;100.00
9717;BME280;4897;43.570;27.832;2024-03-23T06:55:51;99077.09;;;9.93;100.00
9717;BME280;4897;43.570;27.832;2024-03-23T06:58:19;99158.28;;;10.44;100.00
9717;BME280;4897;43.570;27.832;2024-03-23T07:00:46;99152.22;;;10.63;100.00
9717;BME280;4897;43.570;27.832;2024-03-23T07:03:17;99145.06;;;10.64;100.00
9717;BME280;4897;43.570;27.832;2024-03-23T07:05:44;99152.34;;;10.62;100.00
9717;BME280;4897;43.570;27.832;2024-03-23T07:08:14;99139.47;;;10.56;100.00
9717;BME280;4897;43.570;27.832;2024-03-23T07:10:46;99161.91;;;10.85;100.00
9717;BME280;4897;43.570;27.832;2024-03-23T07:13:12;99146.50;;;10.98;100.00
9717;BME280;4897;43.570;27.832;2024-03-23T07:15:40;99051.47;;;10.43;100.00
9717;BME280;4897;43.570;27.832;2024-03-23T07:18:06;99138.09;;;11.02;100.00
9717;BME280;4897;43.570;27.832;2024-03-23T07:20:33;99126.56;;;10.81;100.00
9717;BME280;4897;43.570;27.832;2024-03-23T07:22:59;99132.25;;;11.18;100.00
9717;BME280;4897;43.570;27.832;2024-03-23T07:25:28;99139.06;;;11.41;100.00
9717;BME280;4897;43.570;27.832;2024-03-23T07:27:54;99135.88;;;11.47;100.00
9717;BME280;4897;43.570;27.832;2024-03-23T07:30:21;99135.19;;;11.45;100.00
9717;BME280;4897;43.570;27.832;2024-03-23T07:32:49;99134.75;;;11.50;100.00
9717;BME280;4897;43.570;27.832;2024-03-23T07:35:16;99132.91;;;11.50;100.00
9717;BME280;4897;43.570;27.832;2024-03-23T07:37:42;99132.41;;;11.66;100.00
9717;BME280;4897;43.570;27.832;2024-03-23T07:40:10;99132.59;;;11.74;100.00
9717;BME280;4897;43.570;27.832;2024-03-23T07:42:37;99125.22;;;11.66;100.00
9717;BME280;4897;43.570;27.832;2024-03-23T07:45:04;99136.91;;;11.65;100.00
9717;BME280;4897;43.570;27.832;2024-03-23T07:47:30;99116.13;;;11.78;100.00
9717;BME280;4897;43.570;27.832;2024-03-23T07:49:59;99109.28;;;11.65;100.00
9717;BME280;4897;43.570;27.832;2024-03-23T07:52:28;99100.75;;;11.99;100.00
9717;BME280;4897;43.570;27.832;2024-03-23T07:54:55;99124.31;;;12.34;100.00
9717;BME280;4897;43.570;27.832;2024-03-23T07:57:20;99112.47;;;12.37;100.00
9717;BME280;4897;43.570;27.832;2024-03-23T07:59:47;99114.16;;;12.38;100.00
9717;BME280;4897;43.570;27.832;2024-03-23T08:02:13;99121.06;;;12.40;100.00
9717;BME280;4897;43.570;27.832;2024-03-23T08:04:40;99113.56;;;12.44;100.00
9717;BME280;4897;43.570;27.832;2024-03-23T08:07:07;99109.88;;;12.73;100.00
9717;BME280;4897;43.570;27.832;2024-03-23T08:09:34;99112.91;;;13.07;100.00
9717;BME280;4897;43.570;27.832;2024-03-23T08:12:00;99107.81;;;13.14;100.00
9717;BME280;4897;43.570;27.832;2024-03-23T08:14:27;99096.75;;;13.17;100.00
9717;BME280;4897;43.570;27.832;2024-03-23T08:16:56;99102.97;;;13.17;100.00
9717;BME280;4897;43.570;27.832;2024-03-23T08:19:26;99108.09;;;12.92;100.00
9717;BME280;4897;43.570;27.832;2024-03-23T08:21:58;99100.19;;;13.09;100.00
9717;BME280;4897;43.570;27.832;2024-03-23T08:24:26;99104.69;;;13.45;100.00
9717;BME280;4897;43.570;27.832;2024-03-23T08:26:54;99084.19;;;14.24;100.00
9717;BME280;4897;43.570;27.832;2024-03-23T08:29:21;99090.00;;;15.82;100.00
9717;BME280;4897;43.570;27.832;2024-03-23T08:31:47;99074.44;;;17.29;100.00
9717;BME280;4897;43.570;27.832;2024-03-23T08:34:14;99018.59;;;17.83;100.00
9717;BME280;4897;43.570;27.832;2024-03-23T08:36:39;99082.56;;;19.18;100.00
9717;BME280;4897;43.570;27.832;2024-03-23T08:39:06;99070.13;;;19.53;100.00
9717;BME280;4897;43.570;27.832;2024-03-23T08:41:33;99070.41;;;19.58;100.00
9717;BME280;4897;43.570;27.832;2024-03-23T08:44:03;99067.78;;;20.36;66.64
9717;BME280;4897;43.570;27.832;2024-03-23T08:46:29;99024.34;;;19.79;59.93
9717;BME280;4897;43.570;27.832;2024-03-23T08:48:56;99043.03;;;19.38;59.94
9717;BME280;4897;43.570;27.832;2024-03-23T08:51:22;99074.78;;;20.09;56.72
9717;BME280;4897;43.570;27.832;2024-03-23T08:53:49;99068.09;;;20.96;52.86
9717;BME280;4897;43.570;27.832;2024-03-23T08:56:15;99059.00;;;20.34;51.38
9717;BME280;4897;43.570;27.832;2024-03-23T08:58:44;99083.09;;;19.86;51.50
9717;BME280;4897;43.570;27.832;2024-03-23T09:01:10;99049.88;;;20.90;49.63
9717;BME280;4897;43.570;27.832;2024-03-23T09:03:38;99059.72;;;20.98;46.30
9717;BME280;4897;43.570;27.832;2024-03-23T09:06:07;99044.19;;;21.54;45.71
9717;BME280;4897;43.570;27.832;2024-03-23T09:08:35;99041.75;;;20.06;46.21
9717;BME280;4897;43.570;27.832;2024-03-23T09:11:03;99051.78;;;19.69;48.21
9717;BME280;4897;43.570;27.832;2024-03-23T09:13:32;99052.88;;;21.29;44.40
9717;BME280;4897;43.570;27.832;2024-03-23T09:15:59;99043.13;;;22.02;43.22
9717;BME280;4897;43.570;27.832;2024-03-23T09:18:31;99059.50;;;21.20;42.89
9717;BME280;4897;43.570;27.832;2024-03-23T09:20:58;99057.75;;;21.06;42.57
9717;BME280;4897;43.570;27.832;2024-03-23T09:23:28;99042.44;;;20.50;45.59
9717;BME280;4897;43.570;27.832;2024-03-23T09:25:54;99038.75;;;22.14;42.02
9717;BME280;4897;43.570;27.832;2024-03-23T09:28:22;99032.63;;;21.99;40.25
9717;BME280;4897;43.570;27.832;2024-03-23T09:30:48;99022.78;;;23.42;39.59
9717;BME280;4897;43.570;27.832;2024-03-23T09:33:16;99016.03;;;23.95;35.71
9717;BME280;4897;43.570;27.832;2024-03-23T09:35:43;98947.06;;;24.06;34.57
9717;BME280;4897;43.570;27.832;2024-03-23T09:38:16;99017.56;;;23.21;35.57
9717;BME280;4897;43.570;27.832;2024-03-23T09:40:43;99018.69;;;23.00;36.73
9717;BME280;4897;43.570;27.832;2024-03-23T09:43:11;99022.31;;;21.81;38.71
9717;BME280;4897;43.570;27.832;2024-03-23T09:45:39;99006.44;;;23.16;37.72
9717;BME280;4897;43.570;27.832;2024-03-23T09:48:08;99002.91;;;23.72;35.61
9717;BME280;4897;43.570;27.832;2024-03-23T09:50:36;98996.31;;;23.49;34.99
9717;BME280;4897;43.570;27.832;2024-03-23T09:53:04;98999.59;;;22.35;36.80
9717;BME280;4897;43.570;27.832;2024-03-23T09:55:29;99002.44;;;23.31;36.15
9717;BME280;4897;43.570;27.832;2024-03-23T09:57:56;99001.25;;;22.16;37.47
9717;BME280;4897;43.570;27.832;2024-03-23T10:00:23;99001.94;;;21.64;39.70
9717;BME280;4897;43.570;27.832;2024-03-23T10:02:51;99004.16;;;21.95;39.40
9717;BME280;4897;43.570;27.832;2024-03-23T10:05:20;98986.16;;;22.13;39.94
9717;BME280;4897;43.570;27.832;2024-03-23T10:07:50;98986.56;;;23.09;37.45
9717;BME280;4897;43.570;27.832;2024-03-23T10:10:16;98974.59;;;23.67;35.42
9717;BME280;4897;43.570;27.832;2024-03-23T10:12:47;98981.16;;;22.56;37.13
9717;BME280;4897;43.570;27.832;2024-03-23T10:15:19;98978.25;;;22.77;37.60
9717;BME280;4897;43.570;27.832;2024-03-23T10:17:46;98957.31;;;23.29;37.00
9717;BME280;4897;43.570;27.832;2024-03-23T10:20:12;98968.53;;;23.96;35.72
9717;BME280;4897;43.570;27.832;2024-03-23T10:22:39;98977.56;;;24.59;33.90
9717;BME280;4897;43.570;27.832;2024-03-23T10:25:10;98975.44;;;23.03;36.04
9717;BME280;4897;43.570;27.832;2024-03-23T10:27:39;98952.09;;;23.21;36.37
9717;BME280;4897;43.570;27.832;2024-03-23T10:30:10;98950.31;;;24.21;34.46
9717;BME280;4897;43.570;27.832;2024-03-23T10:32:37;98940.53;;;25.72;32.09
9717;BME280;4897;43.570;27.832;2024-03-23T10:35:14;98946.84;;;25.18;32.10
9717;BME280;4897;43.570;27.832;2024-03-23T10:37:41;98926.97;;;23.63;33.75
9717;BME280;4897;43.570;27.832;2024-03-23T10:40:11;98913.88;;;23.34;34.78
9717;BME280;4897;43.570;27.832;2024-03-23T10:42:38;98931.91;;;23.28;34.96
9717;BME280;4897;43.570;27.832;2024-03-23T10:45:06;98922.28;;;22.49;36.53
9717;BME280;4897;43.570;27.832;2024-03-23T10:47:34;98926.03;;;22.48;36.39
9717;BME280;4897;43.570;27.832;2024-03-23T10:50:02;98929.81;;;23.30;35.20
9717;BME280;4897;43.570;27.832;2024-03-23T10:52:29;98903.31;;;23.50;34.05
9717;BME280;4897;43.570;27.832;2024-03-23T10:54:56;98891.09;;;23.09;35.11
9717;BME280;4897;43.570;27.832;2024-03-23T10:57:31;98911.13;;;23.78;34.28
9717;BME280;4897;43.570;27.832;2024-03-23T11:00:03;98896.94;;;24.43;32.78
9717;BME280;4897;43.570;27.832;2024-03-23T11:02:29;98905.38;;;23.86;33.17
9717;BME280;4897;43.570;27.832;2024-03-23T11:04:56;98876.19;;;24.79;31.94
9717;BME280;4897;43.570;27.832;2024-03-23T11:07:32;98870.25;;;25.77;30.80
9717;BME280;4897;43.570;27.832;2024-03-23T11:09:59;98880.28;;;24.70;31.38
9717;BME280;4897;43.570;27.832;2024-03-23T11:12:36;98890.03;;;23.85;32.73
9717;BME280;4897;43.570;27.832;2024-03-23T11:15:04;98877.94;;;25.39;30.66
9717;BME280;4897;43.570;27.832;2024-03-23T11:17:33;98846.69;;;25.17;30.80
9717;BME280;4897;43.570;27.832;2024-03-23T11:20:00;98870.38;;;26.24;29.63
9717;BME280;4897;43.570;27.832;2024-03-23T11:22:38;98855.31;;;26.03;29.56
9717;BME280;4897;43.570;27.832;2024-03-23T11:25:16;98855.03;;;25.81;29.75
9717;BME280;4897;43.570;27.832;2024-03-23T11:27:44;98858.94;;;26.73;28.28
9717;BME280;4897;43.570;27.832;2024-03-23T11:30:13;98853.53;;;25.08;30.31
9717;BME280;4897;43.570;27.832;2024-03-23T11:32:39;98850.44;;;25.34;30.08
9717;BME280;4897;43.570;27.832;2024-03-23T11:35:06;98843.66;;;24.03;31.64
9717;BME280;4897;43.570;27.832;2024-03-23T11:37:34;98844.69;;;24.33;31.12
9717;BME280;4897;43.570;27.832;2024-03-23T11:40:16;98822.09;;;26.11;29.97
9717;BME280;4897;43.570;27.832;2024-03-23T11:42:44;98832.50;;;25.38;29.52
9717;BME280;4897;43.570;27.832;2024-03-23T11:45:12;98824.94;;;24.49;30.50
9717;BME280;4897;43.570;27.832;2024-03-23T11:47:38;98824.16;;;24.85;30.44
9717;BME280;4897;43.570;27.832;2024-03-23T11:50:05;98813.41;;;26.49;28.86
9717;BME280;4897;43.570;27.832;2024-03-23T11:52:31;98811.19;;;26.85;27.67
9717;BME280;4897;43.570;27.832;2024-03-23T11:55:03;98827.25;;;24.71;29.52
9717;BME280;4897;43.570;27.832;2024-03-23T11:57:30;98805.84;;;24.07;30.98
9717;BME280;4897;43.570;27.832;2024-03-23T11:59:58;98817.91;;;25.56;29.70
9717;BME280;4897;43.570;27.832;2024-03-23T12:02:24;98769.31;;;24.44;29.44
9717;BME280;4897;43.570;27.832;2024-03-23T12:04:51;98818.31;;;23.02;31.43
9717;BME280;4897;43.570;27.832;2024-03-23T12:07:19;98787.16;;;23.79;31.55
9717;BME280;4897;43.570;27.832;2024-03-23T12:10:02;98803.44;;;24.17;30.19
9717;BME280;4897;43.570;27.832;2024-03-23T12:12:28;98794.28;;;24.66;29.68
9717;BME280;4897;43.570;27.832;2024-03-23T12:15:03;98795.78;;;24.25;30.21
9717;BME280;4897;43.570;27.832;2024-03-23T12:17:30;98799.22;;;23.71;30.73
9717;BME280;4897;43.570;27.832;2024-03-23T12:20:00;98790.03;;;24.33;30.26
9717;BME280;4897;43.570;27.832;2024-03-23T12:22:26;98722.41;;;24.95;28.54
9717;BME280;4897;43.570;27.832;2024-03-23T12:24:57;98749.47;;;25.44;27.34
9717;BME280;4897;43.570;27.832;2024-03-23T12:27:23;98757.91;;;24.83;27.69
9717;BME280;4897;43.570;27.832;2024-03-23T12:29:51;98786.16;;;23.98;28.45
9717;BME280;4897;43.570;27.832;2024-03-23T12:32:18;98783.53;;;23.85;28.61
9717;BME280;4897;43.570;27.832;2024-03-23T12:34:46;98773.47;;;24.46;28.27
9717;BME280;4897;43.570;27.832;2024-03-23T12:37:15;98761.97;;;25.52;27.56
9717;BME280;4897;43.570;27.832;2024-03-23T12:39:46;98753.91;;;25.27;27.19
9717;BME280;4897;43.570;27.832;2024-03-23T12:42:12;98680.25;;;25.37;27.01
9717;BME280;4897;43.570;27.832;2024-03-23T12:44:39;98755.31;;;27.03;26.04
9717;BME280;4897;43.570;27.832;2024-03-23T12:47:05;98754.25;;;26.53;25.50
9717;BME280;4897;43.570;27.832;2024-03-23T12:49:33;98744.50;;;26.34;25.94
9717;BME280;4897;43.570;27.832;2024-03-23T12:51:59;98743.63;;;26.96;25.37
9717;BME280;4897;43.570;27.832;2024-03-23T12:54:27;98723.75;;;28.17;24.38
9717;BME280;4897;43.570;27.832;2024-03-23T12:56:53;98733.16;;;28.59;23.42
9717;BME280;4897;43.570;27.832;2024-03-23T12:59:20;98719.03;;;28.72;23.60
9717;BME280;4897;43.570;27.832;2024-03-23T13:01:45;98711.22;;;26.93;24.90
9717;BME280;4897;43.570;27.832;2024-03-23T13:04:12;98714.00;;;25.95;26.30
9717;BME280;4897;43.570;27.832;2024-03-23T13:06:39;98715.09;;;25.94;26.05
9717;BME280;4897;43.570;27.832;2024-03-23T13:09:07;98719.75;;;25.82;26.18
9717;BME280;4897;43.570;27.832;2024-03-23T13:11:35;98717.34;;;25.74;26.16
9717;BME280;4897;43.570;27.832;2024-03-23T13:14:02;98697.25;;;26.55;25.84
9717;BME280;4897;43.570;27.832;2024-03-23T13:16:29;98717.50;;;26.54;25.40
9717;BME280;4897;43.570;27.832;2024-03-23T13:19:00;98722.66;;;24.75;26.82
9717;BME280;4897;43.570;27.832;2024-03-23T13:21:26;98702.00;;;25.73;26.52
9717;BME280;4897;43.570;27.832;2024-03-23T13:23:55;98701.69;;;26.44;25.77
9717;BME280;4897;43.570;27.832;2024-03-23T13:26:21;98670.66;;;25.69;26.03
9717;BME280;4897;43.570;27.832;2024-03-23T13:28:48;98701.00;;;25.03;26.97
9717;BME280;4897;43.570;27.832;2024-03-23T13:31:14;98691.81;;;24.86;26.91
9717;BME280;4897;43.570;27.832;2024-03-23T13:33:40;98663.25;;;26.04;26.20
9717;BME280;4897;43.570;27.832;2024-03-23T13:36:09;98678.88;;;26.55;25.43
9717;BME280;4897;43.570;27.832;2024-03-23T13:38:38;98677.91;;;25.98;25.70
9717;BME280;4897;43.570;27.832;2024-03-23T13:41:08;98660.63;;;26.89;25.31
9717;BME280;4897;43.570;27.832;2024-03-23T13:43:37;98653.34;;;27.28;24.73
9717;BME280;4897;43.570;27.832;2024-03-23T13:46:03;98659.59;;;27.23;24.30
9717;BME280;4897;43.570;27.832;2024-03-23T13:48:30;98675.44;;;26.48;25.11
9717;BME280;4897;43.570;27.832;2024-03-23T13:50:59;98678.97;;;26.60;25.42
9717;BME280;4897;43.570;27.832;2024-03-23T13:53:26;98663.59;;;24.56;27.20
9717;BME280;4897;43.570;27.832;2024-03-23T13:55:52;98676.16;;;22.92;29.53
9717;BME280;4897;43.570;27.832;2024-03-23T13:58:22;98675.31;;;23.48;29.50
9717;BME280;4897;43.570;27.832;2024-03-23T14:00:56;98605.59;;;23.88;28.28
9717;BME280;4897;43.570;27.832;2024-03-23T14:03:23;98667.31;;;24.91;27.41